createdAt,value
2022-10-13T00:01:39.549Z,14.20
2022-10-13T00:04:09.699Z,14.30
2022-10-13T00:06:39.753Z,16.02
2022-10-13T00:09:09.944Z,18.85
2022-10-13T00:11:40.084Z,24.75
2022-10-13T00:14:10.234Z,17.95
2022-10-13T00:16:40.373Z,16.42
2022-10-13T00:19:14.839Z,17.50
2022-10-13T00:21:45.271Z,14.68
2022-10-13T00:24:15.483Z,14.27
2022-10-13T00:26:45.649Z,20.02
2022-10-13T00:29:15.823Z,21.50
2022-10-13T00:31:46.091Z,12.15
2022-10-13T00:34:16.210Z,13.25
2022-10-13T00:36:46.506Z,10.60
2022-10-13T00:39:16.652Z,10.25
2022-10-13T00:41:46.828Z,11.23
2022-10-13T00:44:54.304Z,9.27
2022-10-13T00:47:26.536Z,8.38
2022-10-13T00:49:57.267Z,11.18
2022-10-13T00:52:28.346Z,11.98
2022-10-13T00:54:59.903Z,8.75
2022-10-13T00:57:30.209Z,11.73
2022-10-13T01:00:03.002Z,11.43
2022-10-13T01:02:38.051Z,9.27
2022-10-13T01:05:08.798Z,14.68
2022-10-13T01:07:39.012Z,11.18
2022-10-13T01:10:09.186Z,10.60
2022-10-13T01:13:09.265Z,10.52
2022-10-13T01:15:51.544Z,11.55
2022-10-13T01:18:43.082Z,13.07
2022-10-13T01:21:36.490Z,12.57
2022-10-13T01:24:21.914Z,13.50
2022-10-13T01:27:06.868Z,9.88
2022-10-13T01:30:08.916Z,10.23
2022-10-13T01:33:17.941Z,10.48
2022-10-13T01:36:06.637Z,9.32
2022-10-13T01:38:43.127Z,7.88
2022-10-13T01:41:37.454Z,9.88
2022-10-13T01:44:29.486Z,13.70
2022-10-13T01:47:01.492Z,8.45
2022-10-13T01:49:37.613Z,10.38
2022-10-13T01:52:15.644Z,13.57
2022-10-13T01:54:51.461Z,10.70
2022-10-13T01:57:47.641Z,12.48
2022-10-13T02:00:21.336Z,12.25
2022-10-13T02:03:26.809Z,10.75
2022-10-13T02:06:18.289Z,11.63
2022-10-13T02:08:58.310Z,14.07
2022-10-13T02:11:28.705Z,14.20
2022-10-13T02:14:23.169Z,15.68
2022-10-13T02:16:56.217Z,14.60
2022-10-13T02:19:28.360Z,11.77
2022-10-13T02:21:59.071Z,13.85
2022-10-13T02:24:29.369Z,11.38
2022-10-13T02:26:59.930Z,13.38
2022-10-13T02:29:30.039Z,11.48
2022-10-13T02:32:00.420Z,11.98
2022-10-13T02:34:30.841Z,14.23
2022-10-13T02:37:00.966Z,16.33
2022-10-13T02:39:31.033Z,14.05
2022-10-13T02:42:01.147Z,16.65
2022-10-13T02:44:31.250Z,12.30
2022-10-13T02:47:01.401Z,10.45
2022-10-13T02:49:31.649Z,10.65
2022-10-13T02:52:01.920Z,15.55
2022-10-13T02:54:32.054Z,18.77
2022-10-13T02:57:02.131Z,11.73
2022-10-13T02:59:32.281Z,14.40
2022-10-13T03:02:02.657Z,11.68
2022-10-13T03:04:35.028Z,12.50
2022-10-13T03:07:05.260Z,14.20
2022-10-13T03:09:35.513Z,15.85
2022-10-13T03:12:06.015Z,13.98
2022-10-13T03:14:36.179Z,11.18
2022-10-13T03:17:08.825Z,13.57
2022-10-13T03:19:42.637Z,11.98
2022-10-13T03:22:15.606Z,13.10
2022-10-13T03:24:46.229Z,12.55
2022-10-13T03:27:16.389Z,13.00
2022-10-13T03:29:46.635Z,13.10
2022-10-13T03:32:17.426Z,14.70
2022-10-13T03:34:47.811Z,10.30
2022-10-13T03:37:18.240Z,10.18
2022-10-13T03:39:48.468Z,14.50
2022-10-13T03:42:18.835Z,12.25
2022-10-13T03:44:53.687Z,11.90
2022-10-13T03:47:26.141Z,10.18
2022-10-13T03:49:56.395Z,11.65
2022-10-13T03:52:26.489Z,14.55
2022-10-13T03:54:56.645Z,10.20
2022-10-13T03:57:26.760Z,11.60
2022-10-13T03:59:57.830Z,9.15
2022-10-13T04:02:28.031Z,10.88
2022-10-13T04:04:58.121Z,11.57
2022-10-13T04:07:28.292Z,10.27
2022-10-13T04:09:59.553Z,11.23
2022-10-13T04:12:29.627Z,10.10
2022-10-13T04:14:59.750Z,15.20
2022-10-13T04:17:29.847Z,12.18
2022-10-13T04:19:59.987Z,10.48
2022-10-13T04:22:30.037Z,13.68
2022-10-13T04:25:00.231Z,15.50
2022-10-13T04:27:31.006Z,18.55
2022-10-13T04:30:01.257Z,12.15
2022-10-13T04:32:31.425Z,15.82
2022-10-13T04:35:01.607Z,18.08
2022-10-13T04:37:31.670Z,21.88
2022-10-13T04:40:01.861Z,15.63
2022-10-13T04:42:31.940Z,15.82
2022-10-13T04:45:02.159Z,16.63
2022-10-13T04:47:36.798Z,16.92
2022-10-13T04:50:07.761Z,15.20
2022-10-13T04:52:37.919Z,15.05
2022-10-13T04:55:09.295Z,11.80
2022-10-13T04:57:39.393Z,16.67
2022-10-13T05:00:10.883Z,12.18
2022-10-13T05:02:41.030Z,10.57
2022-10-13T05:05:11.335Z,14.32
2022-10-13T05:07:41.461Z,11.73
2022-10-13T05:10:11.665Z,13.20
2022-10-13T05:12:41.822Z,6.60
2022-10-13T05:15:11.922Z,8.70
2022-10-13T05:17:42.088Z,11.40
2022-10-13T05:20:12.712Z,11.48
2022-10-13T05:22:43.224Z,11.25
2022-10-13T05:25:13.355Z,11.45
2022-10-13T05:27:45.389Z,14.13
2022-10-13T05:30:15.514Z,11.70
2022-10-13T05:32:46.820Z,8.63
2022-10-13T05:35:18.356Z,10.88
2022-10-13T05:37:48.507Z,10.57
2022-10-13T05:40:22.181Z,12.73
2022-10-13T05:42:52.906Z,12.23
2022-10-13T05:45:24.502Z,14.25
2022-10-13T05:47:54.618Z,11.45
2022-10-13T05:50:24.943Z,14.50
2022-10-13T05:52:55.110Z,9.82
2022-10-13T05:55:25.270Z,10.20
2022-10-13T05:57:55.476Z,12.10
2022-10-13T06:00:25.657Z,16.08
2022-10-13T06:03:07.723Z,12.05
2022-10-13T06:05:38.526Z,13.00
2022-10-13T06:08:09.631Z,12.52
2022-10-13T06:10:40.682Z,10.98
2022-10-13T06:13:10.729Z,11.20
2022-10-13T06:15:40.929Z,13.85
2022-10-13T06:18:10.972Z,11.43
2022-10-13T06:20:41.225Z,12.27
2022-10-13T06:23:12.720Z,12.57
2022-10-13T06:25:50.325Z,15.25
2022-10-13T06:28:21.033Z,16.10
2022-10-13T06:30:56.626Z,11.05
2022-10-13T06:33:26.838Z,14.18
2022-10-13T06:36:01.073Z,11.65
2022-10-13T06:38:31.632Z,10.43
2022-10-13T06:41:03.821Z,13.80
2022-10-13T06:43:39.911Z,13.50
2022-10-13T06:46:11.318Z,10.18
2022-10-13T06:48:41.754Z,13.57
2022-10-13T06:51:12.424Z,11.38
2022-10-13T06:53:42.838Z,9.05
2022-10-13T06:56:14.362Z,13.25
2022-10-13T06:58:44.891Z,10.63
2022-10-13T07:01:15.205Z,12.02
2022-10-13T07:03:49.447Z,11.02
2022-10-13T07:06:19.649Z,10.98
2022-10-13T07:08:49.866Z,14.00
2022-10-13T07:11:20.611Z,10.43
2022-10-13T07:13:50.863Z,9.82
2022-10-13T07:16:21.063Z,14.05
2022-10-13T07:18:51.243Z,9.70
2022-10-13T07:21:21.872Z,10.07
2022-10-13T07:23:52.036Z,9.23
2022-10-13T07:26:22.629Z,19.23
2022-10-13T07:28:53.160Z,12.70
2022-10-13T07:31:23.316Z,14.27
2022-10-13T07:33:53.390Z,11.77
2022-10-13T07:36:23.541Z,10.60
2022-10-13T07:38:53.798Z,15.65
2022-10-13T07:41:24.126Z,10.25
2022-10-13T07:43:57.842Z,16.83
2022-10-13T07:46:28.077Z,11.07
2022-10-13T07:48:58.573Z,11.50
2022-10-13T07:51:28.798Z,12.48
2022-10-13T07:53:59.010Z,17.52
2022-10-13T07:56:29.215Z,12.88
2022-10-13T07:58:59.431Z,14.57
2022-10-13T08:01:29.528Z,14.48
2022-10-13T08:03:59.778Z,9.38
2022-10-13T08:06:30.112Z,7.95
2022-10-13T08:09:00.893Z,12.43
2022-10-13T08:11:31.994Z,17.38
2022-10-13T08:14:02.660Z,8.60
2022-10-13T08:16:33.479Z,11.55
2022-10-13T08:19:03.707Z,12.63
2022-10-13T08:21:57.011Z,9.10
2022-10-13T08:24:24.326Z,9.60
2022-10-13T08:26:54.920Z,7.90
2022-10-13T08:29:25.132Z,11.27
2022-10-13T08:31:55.691Z,7.28
2022-10-13T08:34:26.138Z,8.52
2022-10-13T08:36:57.610Z,7.72
2022-10-13T08:39:28.207Z,5.72
2022-10-13T08:41:59.021Z,8.73
2022-10-13T08:47:40.599Z,4.43
2022-10-13T08:50:23.415Z,7.95
2022-10-13T08:53:07.930Z,9.10
2022-10-13T08:55:43.022Z,6.57
2022-10-13T08:58:20.053Z,7.40
2022-10-13T09:01:09.379Z,7.90
2022-10-13T09:03:53.051Z,22.30
2022-10-13T09:06:29.464Z,7.38
2022-10-13T09:09:02.214Z,5.80
2022-10-13T09:11:36.037Z,7.65
2022-10-13T09:14:31.507Z,6.82
2022-10-13T09:17:22.529Z,5.93
2022-10-13T09:20:33.975Z,11.00
2022-10-13T09:23:06.973Z,8.07
2022-10-13T09:25:43.573Z,5.00
2022-10-13T09:31:09.154Z,6.20
2022-10-13T09:33:42.102Z,5.93
2022-10-13T09:36:15.394Z,6.40
2022-10-13T09:39:15.508Z,11.10
2022-10-13T09:41:45.791Z,7.50
2022-10-13T09:44:28.964Z,7.72
2022-10-13T09:47:02.945Z,3.70
2022-10-13T09:49:40.221Z,8.65
2022-10-13T09:52:13.455Z,10.75
2022-10-13T09:54:56.452Z,8.73
2022-10-13T09:57:41.966Z,7.97
2022-10-13T10:00:22.827Z,7.72
2022-10-13T10:02:55.828Z,4.60
2022-10-13T10:05:33.468Z,5.88
2022-10-13T10:08:14.151Z,7.32
2022-10-13T10:10:44.990Z,8.65
2022-10-13T10:13:15.857Z,33.22
2022-10-13T10:16:06.574Z,8.07
2022-10-13T10:18:39.253Z,4.82
2022-10-13T10:21:23.521Z,5.32
2022-10-13T10:24:19.506Z,7.22
2022-10-13T10:27:22.903Z,6.80
2022-10-13T10:30:06.113Z,14.48
2022-10-13T10:32:43.425Z,7.32
2022-10-13T10:35:24.792Z,5.95
2022-10-13T10:38:07.231Z,4.25
2022-10-13T10:40:49.601Z,9.10
2022-10-13T10:43:34.966Z,9.00
2022-10-13T10:46:19.534Z,4.82
2022-10-13T10:48:54.181Z,6.72
2022-10-13T10:51:31.265Z,8.00
2022-10-13T10:54:08.442Z,6.28
2022-10-13T10:56:49.377Z,10.70
2022-10-13T10:59:29.457Z,9.85
2022-10-13T11:02:08.396Z,5.05
2022-10-13T11:04:44.340Z,8.68
2022-10-13T11:07:34.340Z,5.57
2022-10-13T11:10:19.162Z,5.85
2022-10-13T11:13:09.152Z,7.45
2022-10-13T11:15:40.704Z,12.50
2022-10-13T11:18:48.415Z,6.97
2022-10-13T11:21:18.585Z,6.35
2022-10-13T11:23:50.329Z,5.82
2022-10-13T11:26:26.436Z,7.57
2022-10-13T11:28:57.182Z,6.90
2022-10-13T11:31:35.201Z,8.18
2022-10-13T11:34:26.743Z,6.03
2022-10-13T11:36:58.680Z,5.93
2022-10-13T11:39:37.557Z,3.85
2022-10-13T11:42:35.355Z,7.10
2022-10-13T11:45:36.820Z,11.57
2022-10-13T11:48:38.913Z,5.22
2022-10-13T11:51:16.420Z,6.55
2022-10-13T11:54:08.664Z,8.55
2022-10-13T11:56:49.046Z,7.40
2022-10-13T11:59:28.195Z,5.55
2022-10-13T12:02:19.425Z,8.27
2022-10-13T12:05:21.511Z,7.30
2022-10-13T12:07:54.958Z,11.07
2022-10-13T12:10:38.085Z,9.65
2022-10-13T12:13:08.810Z,10.98
2022-10-13T12:15:43.489Z,9.80
2022-10-13T12:18:27.138Z,8.15
2022-10-13T12:20:59.313Z,7.20
2022-10-13T12:23:32.127Z,10.70
2022-10-13T12:26:02.690Z,9.77
2022-10-13T12:28:50.684Z,10.40
2022-10-13T12:31:28.593Z,8.98
2022-10-13T12:34:02.984Z,10.90
2022-10-13T12:36:35.532Z,10.15
2022-10-13T12:39:11.063Z,11.98
2022-10-13T12:41:43.826Z,6.85
2022-10-13T12:44:20.094Z,10.80
2022-10-13T12:46:53.803Z,7.40
2022-10-13T12:49:27.429Z,8.18
2022-10-13T12:52:09.471Z,6.75
2022-10-13T12:54:47.538Z,9.43
2022-10-13T12:57:36.311Z,6.38
2022-10-13T13:00:27.714Z,11.00
2022-10-13T13:03:00.411Z,12.73
2022-10-13T13:05:33.430Z,10.50
2022-10-13T13:08:06.660Z,7.25
2022-10-13T13:10:36.815Z,10.30
2022-10-13T13:13:14.575Z,8.77
2022-10-13T13:15:44.764Z,7.30
2022-10-13T13:18:26.780Z,5.78
2022-10-13T13:20:57.253Z,9.02
2022-10-13T13:23:33.864Z,8.23
2022-10-13T13:26:15.416Z,7.88
2022-10-13T13:28:48.591Z,10.23
2022-10-13T13:31:21.376Z,7.18
2022-10-13T13:33:53.768Z,7.70
2022-10-13T13:36:25.600Z,10.77
2022-10-13T13:38:56.086Z,10.88
2022-10-13T13:41:28.102Z,11.35
2022-10-13T13:43:58.227Z,8.88
2022-10-13T13:46:29.364Z,8.32
2022-10-13T13:48:59.440Z,22.30
2022-10-13T13:51:29.945Z,6.90
2022-10-13T13:54:00.164Z,10.07
2022-10-13T13:56:30.343Z,9.15
2022-10-13T13:59:00.538Z,8.60
2022-10-13T14:01:32.522Z,6.43
2022-10-13T14:04:03.274Z,7.10
2022-10-13T14:06:33.449Z,7.60
2022-10-13T14:09:05.138Z,7.05
2022-10-13T14:11:35.314Z,10.52
2022-10-13T14:14:05.488Z,8.60
2022-10-13T14:16:35.643Z,8.07
2022-10-13T14:19:06.020Z,8.85
2022-10-13T14:21:36.603Z,8.88
2022-10-13T14:24:07.225Z,8.52
2022-10-13T14:26:37.423Z,9.35
2022-10-13T14:29:07.686Z,7.35
2022-10-13T14:31:41.785Z,10.65
2022-10-13T14:34:12.506Z,7.45
2022-10-13T14:36:42.676Z,15.02
2022-10-13T14:39:14.401Z,11.27
2022-10-13T14:41:44.922Z,11.25
2022-10-13T14:44:16.393Z,11.02
2022-10-13T14:46:46.641Z,8.68
2022-10-13T14:49:18.577Z,8.65
2022-10-13T14:51:49.043Z,9.00
2022-10-13T14:54:20.142Z,8.43
2022-10-13T14:56:51.651Z,6.20
2022-10-13T14:59:22.198Z,9.98
2022-10-13T15:01:52.812Z,12.65
2022-10-13T15:04:24.418Z,7.75
2022-10-13T15:06:55.916Z,7.78
2022-10-13T15:09:44.847Z,7.88
2022-10-13T15:12:22.317Z,7.97
2022-10-13T15:14:52.889Z,10.23
2022-10-13T15:17:23.081Z,7.13
2022-10-13T15:19:54.825Z,11.70
2022-10-13T15:22:26.798Z,7.20
2022-10-13T15:24:57.316Z,8.57
2022-10-13T15:27:28.433Z,8.63
2022-10-13T15:29:59.298Z,13.65
2022-10-13T15:32:29.539Z,9.10
2022-10-13T15:35:00.121Z,9.18
2022-10-13T15:37:30.941Z,13.63
2022-10-13T15:40:03.190Z,13.48
2022-10-13T15:42:33.478Z,10.90
2022-10-13T15:45:09.964Z,26.83
2022-10-13T15:47:41.583Z,12.45
2022-10-13T15:50:13.362Z,12.95
2022-10-13T15:52:44.839Z,16.85
2022-10-13T15:55:15.459Z,13.63
2022-10-13T15:57:46.193Z,13.98
2022-10-13T16:00:19.410Z,9.27
2022-10-13T16:02:52.226Z,10.25
2022-10-13T16:05:23.569Z,11.43
2022-10-13T16:07:53.742Z,10.80
2022-10-13T16:10:24.329Z,21.83
2022-10-13T16:12:54.423Z,7.80
2022-10-13T16:15:24.588Z,9.40
2022-10-13T16:17:54.950Z,9.30
2022-10-13T16:20:25.182Z,10.05
2022-10-13T16:22:55.334Z,8.68
2022-10-13T16:25:25.547Z,16.42
2022-10-13T16:27:55.651Z,14.27
2022-10-13T16:30:27.022Z,16.02
2022-10-13T16:32:58.222Z,11.52
2022-10-13T16:35:28.366Z,13.82
2022-10-13T16:38:04.766Z,12.75
2022-10-13T16:40:42.089Z,12.60
2022-10-13T16:43:14.563Z,20.15
2022-10-13T16:45:59.912Z,16.52
2022-10-13T16:48:32.523Z,18.92
2022-10-13T16:51:08.291Z,15.13
2022-10-13T16:53:38.943Z,18.93
2022-10-13T16:56:09.399Z,13.90
2022-10-13T16:58:45.058Z,15.70
2022-10-13T17:01:15.565Z,12.65
2022-10-13T17:03:47.014Z,9.38
2022-10-13T17:06:18.627Z,15.23
2022-10-13T17:08:48.877Z,13.13
2022-10-13T17:11:24.872Z,12.60
2022-10-13T17:13:56.814Z,19.95
2022-10-13T17:16:27.829Z,24.45
2022-10-13T17:18:58.233Z,26.15
2022-10-13T17:21:28.482Z,25.00
2022-10-13T17:23:58.609Z,20.48
2022-10-13T17:26:28.769Z,17.63
2022-10-13T17:28:59.016Z,15.80
2022-10-13T17:31:29.289Z,12.05
2022-10-13T17:34:00.211Z,15.15
2022-10-13T17:36:34.617Z,15.57
2022-10-13T17:39:07.683Z,12.75
2022-10-13T17:41:37.851Z,17.70
2022-10-13T17:44:08.021Z,15.70
2022-10-13T17:46:39.936Z,16.67
2022-10-13T17:49:12.261Z,15.98
2022-10-13T17:51:44.070Z,10.88
2022-10-13T17:54:16.386Z,16.25
2022-10-13T17:56:48.074Z,17.73
2022-10-13T17:59:18.613Z,15.10
2022-10-13T18:01:48.892Z,12.85
2022-10-13T18:04:19.918Z,12.40
2022-10-13T18:06:50.087Z,14.27
2022-10-13T18:09:23.411Z,12.50
2022-10-13T18:11:54.843Z,16.27
2022-10-13T18:14:25.320Z,15.98
2022-10-13T18:16:56.485Z,20.05
2022-10-13T18:19:26.810Z,15.20
2022-10-13T18:21:56.939Z,19.00
2022-10-13T18:24:27.223Z,15.23
2022-10-13T18:26:57.490Z,17.05
2022-10-13T18:29:27.670Z,15.05
2022-10-13T18:31:57.828Z,14.38
2022-10-13T18:34:28.055Z,25.02
2022-10-13T18:36:58.365Z,22.50
2022-10-13T18:39:29.429Z,18.50
2022-10-13T18:41:59.612Z,16.20
2022-10-13T18:44:29.882Z,17.63
2022-10-13T18:47:00.139Z,14.95
2022-10-13T18:49:33.405Z,11.73
2022-10-13T18:52:03.707Z,13.18
2022-10-13T18:54:33.925Z,17.05
2022-10-13T18:57:04.139Z,15.13
2022-10-13T18:59:38.785Z,11.00
2022-10-13T19:02:13.818Z,13.80
2022-10-13T19:04:44.338Z,18.20
2022-10-13T19:07:14.474Z,16.35
2022-10-13T19:09:45.824Z,12.98
2022-10-13T19:12:15.986Z,16.95
2022-10-13T19:14:46.199Z,15.32
2022-10-13T19:17:16.443Z,17.50
2022-10-13T19:19:46.684Z,20.65
2022-10-13T19:22:16.950Z,22.65
2022-10-13T19:24:47.056Z,15.77
2022-10-13T19:27:17.180Z,26.42
2022-10-13T19:29:47.672Z,24.33
2022-10-13T19:32:18.211Z,24.35
2022-10-13T19:34:48.854Z,27.52
2022-10-13T19:37:19.416Z,28.95
2022-10-13T19:39:50.191Z,34.25
2022-10-13T19:42:21.661Z,23.80
2022-10-13T19:44:52.159Z,20.77
2022-10-13T19:47:23.944Z,24.10
2022-10-13T19:49:54.552Z,24.17
2022-10-13T19:52:26.269Z,21.73
2022-10-13T19:54:57.118Z,20.70
2022-10-13T19:57:27.484Z,19.90
2022-10-13T19:59:57.615Z,18.65
2022-10-13T20:02:27.823Z,14.35
2022-10-13T20:04:57.983Z,14.60
2022-10-13T20:07:28.149Z,19.63
2022-10-13T20:09:58.333Z,11.40
2022-10-13T20:12:28.422Z,14.77
2022-10-13T20:14:58.594Z,15.32
2022-10-13T20:17:28.911Z,14.23
2022-10-13T20:19:59.823Z,13.68
2022-10-13T20:22:30.010Z,11.30
2022-10-13T20:25:00.487Z,11.00
2022-10-13T20:27:30.859Z,14.23
2022-10-13T20:30:01.242Z,14.57
2022-10-13T20:32:31.298Z,14.18
2022-10-13T20:35:01.451Z,14.32
2022-10-13T20:37:31.614Z,15.38
2022-10-13T20:40:01.906Z,16.20
2022-10-13T20:42:32.046Z,14.23
2022-10-13T20:45:02.100Z,14.30
2022-10-13T20:47:32.503Z,13.40
2022-10-13T20:50:03.997Z,14.50
2022-10-13T20:52:34.945Z,17.48
2022-10-13T20:55:05.231Z,14.65
2022-10-13T20:57:35.466Z,15.63
2022-10-13T21:00:06.378Z,14.65
2022-10-13T21:02:36.906Z,15.80
2022-10-13T21:05:07.358Z,20.08
2022-10-13T21:07:37.584Z,13.80
2022-10-13T21:10:08.785Z,13.15
2022-10-13T21:12:38.998Z,17.15
2022-10-13T21:15:09.820Z,13.93
2022-10-13T21:17:42.415Z,12.75
2022-10-13T21:20:12.786Z,15.40
2022-10-13T21:22:43.238Z,13.00
2022-10-13T21:25:13.837Z,13.85
2022-10-13T21:27:44.043Z,13.18
2022-10-13T21:30:14.334Z,18.95
2022-10-13T21:32:44.885Z,13.52
2022-10-13T21:35:15.390Z,12.63
2022-10-13T21:37:45.732Z,13.13
2022-10-13T21:40:16.053Z,12.38
2022-10-13T21:42:46.188Z,12.05
2022-10-13T21:45:16.405Z,13.40
2022-10-13T21:47:46.681Z,13.15
2022-10-13T21:50:16.838Z,15.07
2022-10-13T21:52:46.942Z,11.23
2022-10-13T21:55:17.175Z,15.23
2022-10-13T21:57:47.309Z,18.02
2022-10-13T22:00:17.511Z,10.60
2022-10-13T22:02:47.603Z,16.10
2022-10-13T22:05:17.822Z,13.30
2022-10-13T22:07:48.001Z,13.43
2022-10-13T22:10:21.751Z,20.58
2022-10-13T22:12:51.853Z,15.30
2022-10-13T22:15:22.047Z,13.70
2022-10-13T22:17:52.287Z,16.00
2022-10-13T22:20:22.662Z,16.27
2022-10-13T22:22:52.778Z,15.38
2022-10-13T22:25:22.890Z,14.77
2022-10-13T22:27:53.222Z,18.92
2022-10-13T22:30:23.357Z,13.15
2022-10-13T22:32:53.470Z,23.65
2022-10-13T22:35:23.641Z,19.55
2022-10-13T22:37:53.786Z,18.30
2022-10-13T22:40:23.909Z,23.23
2022-10-13T22:42:54.018Z,14.95
2022-10-13T22:45:24.435Z,16.77
2022-10-13T22:47:54.586Z,21.25
2022-10-13T22:50:24.715Z,15.15
2022-10-13T22:52:54.809Z,19.17
2022-10-13T22:55:24.902Z,18.55
2022-10-13T22:57:55.289Z,16.13
2022-10-13T23:00:25.342Z,16.42
2022-10-13T23:02:55.504Z,18.23
2022-10-13T23:05:25.597Z,14.50
2022-10-13T23:07:56.337Z,19.42
2022-10-13T23:10:26.530Z,22.63
2022-10-13T23:12:56.733Z,17.00
2022-10-13T23:15:26.829Z,14.80
2022-10-13T23:17:56.946Z,16.27
2022-10-13T23:20:27.098Z,14.73
2022-10-13T23:22:57.285Z,17.13
2022-10-13T23:25:27.433Z,12.65
2022-10-13T23:27:58.175Z,13.73
2022-10-13T23:30:28.388Z,13.50
2022-10-13T23:32:58.438Z,14.50
2022-10-13T23:35:28.754Z,13.65
2022-10-13T23:37:58.924Z,13.02
2022-10-13T23:40:28.990Z,15.70
2022-10-13T23:42:59.241Z,14.63
2022-10-13T23:45:29.337Z,11.75
2022-10-13T23:47:59.483Z,14.77
2022-10-13T23:50:29.639Z,14.40
2022-10-13T23:52:59.798Z,16.38
2022-10-13T23:55:30.409Z,14.02
2022-10-13T23:58:00.508Z,15.13
